createdAt,value
2023-04-24T00:02:25.383Z,5.10
2023-04-24T00:04:54.188Z,5.37
2023-04-24T00:07:22.716Z,5.20
2023-04-24T00:09:51.564Z,4.67
2023-04-24T00:12:21.448Z,4.63
2023-04-24T00:14:49.812Z,4.80
2023-04-24T00:17:20.997Z,5.50
2023-04-24T00:19:52.873Z,4.70
2023-04-24T00:22:21.885Z,4.93
2023-04-24T00:24:50.510Z,4.63
2023-04-24T00:27:19.027Z,5.23
2023-04-24T00:29:49.276Z,4.67
2023-04-24T00:32:19.173Z,5.27
2023-04-24T00:34:47.880Z,5.60
2023-04-24T00:37:16.385Z,5.33
2023-04-24T00:39:46.651Z,5.97
2023-04-24T00:42:17.612Z,6.47
2023-04-24T00:44:46.337Z,6.47
2023-04-24T00:47:21.110Z,6.67
2023-04-24T00:49:50.059Z,7.33
2023-04-24T00:52:21.834Z,6.53
2023-04-24T00:54:50.450Z,6.70
2023-04-24T00:57:19.495Z,6.93
2023-04-24T00:59:48.636Z,7.13
2023-04-24T01:02:18.620Z,7.53
2023-04-24T01:04:47.279Z,7.70
2023-04-24T01:07:15.652Z,7.70
2023-04-24T01:09:44.416Z,7.70
2023-04-24T01:12:13.102Z,8.23
2023-04-24T01:14:41.571Z,8.37
2023-04-24T01:17:10.347Z,7.83
2023-04-24T01:19:40.242Z,8.10
2023-04-24T01:22:15.211Z,8.10
2023-04-24T01:24:43.986Z,8.03
2023-04-24T01:27:14.631Z,8.10
2023-04-24T01:29:44.294Z,8.37
2023-04-24T01:32:13.295Z,8.67
2023-04-24T01:34:43.075Z,8.43
2023-04-24T01:37:13.452Z,9.17
2023-04-24T01:39:42.464Z,9.00
2023-04-24T01:42:11.725Z,9.33
2023-04-24T01:44:42.820Z,9.63
2023-04-24T01:47:11.215Z,9.80
2023-04-24T01:49:41.689Z,10.33
2023-04-24T01:52:10.464Z,11.70
2023-04-24T01:54:40.254Z,11.50
2023-04-24T01:57:09.218Z,11.10
2023-04-24T01:59:37.904Z,12.30
2023-04-24T02:02:06.377Z,11.60
2023-04-24T02:04:35.640Z,12.67
2023-04-24T02:07:04.073Z,12.27
2023-04-24T02:09:34.237Z,12.83
2023-04-24T02:12:04.053Z,12.60
2023-04-24T02:14:32.493Z,12.97
2023-04-24T02:17:01.735Z,12.77
2023-04-24T02:19:30.791Z,13.23
2023-04-24T02:21:59.280Z,14.10
2023-04-24T02:24:28.167Z,13.33
2023-04-24T02:26:56.919Z,13.93
2023-04-24T02:29:26.867Z,14.83
2023-04-24T02:31:55.567Z,13.77
2023-04-24T02:34:24.213Z,14.00
2023-04-24T02:36:54.904Z,14.30
2023-04-24T02:39:23.345Z,13.83
2023-04-24T02:41:51.928Z,14.70
2023-04-24T02:44:20.485Z,14.83
2023-04-24T02:46:50.188Z,13.37
2023-04-24T02:49:18.664Z,14.23
2023-04-24T02:51:47.397Z,13.77
2023-04-24T02:54:15.869Z,13.67
2023-04-24T02:56:44.326Z,14.87
2023-04-24T02:59:12.825Z,14.70
2023-04-24T03:01:41.303Z,14.50
2023-04-24T03:04:11.575Z,14.10
2023-04-24T03:06:40.324Z,14.70
2023-04-24T03:09:08.787Z,15.23
2023-04-24T03:11:37.090Z,15.33
2023-04-24T03:14:05.658Z,14.47
2023-04-24T03:16:34.290Z,13.47
2023-04-24T03:19:03.691Z,13.93
2023-04-24T03:21:41.511Z,13.90
2023-04-24T03:24:09.975Z,14.17
2023-04-24T03:26:38.987Z,12.33
2023-04-24T03:29:20.119Z,13.47
2023-04-24T03:31:49.006Z,14.07
2023-04-24T03:34:17.784Z,13.30
2023-04-24T03:36:49.689Z,13.90
2023-04-24T03:39:18.404Z,12.80
2023-04-24T03:41:55.680Z,13.03
2023-04-24T03:44:29.680Z,12.30
2023-04-24T03:46:58.168Z,12.43
2023-04-24T03:49:27.140Z,11.97
2023-04-24T03:51:57.100Z,12.87
2023-04-24T03:54:28.371Z,12.23
2023-04-24T03:56:57.001Z,11.80
2023-04-24T03:59:30.085Z,12.57
2023-04-24T04:02:11.253Z,11.03
2023-04-24T04:04:39.827Z,12.70
2023-04-24T04:07:12.805Z,11.63
2023-04-24T04:09:42.024Z,11.90
2023-04-24T04:12:11.062Z,11.17
2023-04-24T04:14:40.966Z,11.17
2023-04-24T04:17:09.453Z,11.30
2023-04-24T04:19:38.149Z,9.60
2023-04-24T04:22:06.571Z,10.47
2023-04-24T04:24:48.087Z,9.93
2023-04-24T04:27:17.689Z,8.97
2023-04-24T04:30:02.407Z,8.50
2023-04-24T04:32:32.636Z,9.37
2023-04-24T04:35:04.211Z,8.20
2023-04-24T04:37:34.848Z,8.90
2023-04-24T04:40:24.073Z,8.43
2023-04-24T04:42:59.453Z,9.23
2023-04-24T04:45:31.817Z,8.70
2023-04-24T04:48:20.110Z,8.70
2023-04-24T04:50:48.662Z,9.57
2023-04-24T04:53:17.447Z,8.97
2023-04-24T04:55:49.516Z,9.50
2023-04-24T04:58:20.243Z,10.20
2023-04-24T05:00:53.389Z,9.40
2023-04-24T05:03:32.542Z,10.43
2023-04-24T05:06:11.241Z,10.60
2023-04-24T05:08:41.269Z,10.10
2023-04-24T05:11:22.397Z,10.40
2023-04-24T05:13:50.969Z,11.10
2023-04-24T05:16:24.619Z,10.70
2023-04-24T05:18:55.380Z,10.97
2023-04-24T05:21:30.679Z,12.17
2023-04-24T05:23:59.245Z,11.37
2023-04-24T05:26:49.376Z,11.60
2023-04-24T05:29:22.460Z,11.40
2023-04-24T05:31:50.992Z,11.70
2023-04-24T05:34:19.807Z,11.70
2023-04-24T05:36:52.738Z,11.27
2023-04-24T05:39:21.910Z,11.17
2023-04-24T05:41:51.803Z,11.43
2023-04-24T05:44:20.261Z,13.40
2023-04-24T05:46:48.837Z,11.87
2023-04-24T05:49:18.250Z,11.67
2023-04-24T05:51:47.873Z,10.63
2023-04-24T05:54:17.565Z,11.13
2023-04-24T05:56:46.102Z,11.17
2023-04-24T05:59:20.055Z,11.63
2023-04-24T06:01:48.672Z,11.17
2023-04-24T06:04:25.748Z,10.67
2023-04-24T06:06:57.070Z,10.43
2023-04-24T06:09:25.637Z,9.83
2023-04-24T06:11:55.789Z,10.23
2023-04-24T06:14:29.633Z,9.03
2023-04-24T06:17:20.988Z,7.97
2023-04-24T06:19:50.075Z,7.83
2023-04-24T06:22:18.720Z,7.07
2023-04-24T06:24:48.367Z,6.23
2023-04-24T06:27:16.937Z,6.00
2023-04-24T06:29:46.680Z,5.43
2023-04-24T06:32:15.302Z,4.27
2023-04-24T06:34:43.832Z,4.20
2023-04-24T06:37:12.328Z,4.30
2023-04-24T06:39:41.020Z,3.83
2023-04-24T06:42:10.510Z,3.67
2023-04-24T06:44:42.162Z,3.57
2023-04-24T06:47:14.665Z,3.30
2023-04-24T06:49:43.849Z,3.03
2023-04-24T06:52:12.468Z,3.40
2023-04-24T06:54:40.880Z,2.67
2023-04-24T06:57:09.278Z,2.97
2023-04-24T06:59:37.699Z,2.90
2023-04-24T07:02:06.138Z,3.43
2023-04-24T07:04:36.362Z,3.03
2023-04-24T07:07:05.732Z,2.70
2023-04-24T07:09:36.316Z,2.27
2023-04-24T07:12:04.946Z,2.23
2023-04-24T07:14:35.886Z,2.87
2023-04-24T07:17:05.817Z,2.60
2023-04-24T07:19:36.439Z,3.60
2023-04-24T07:22:05.729Z,2.77
2023-04-24T07:24:34.777Z,2.67
2023-04-24T07:27:03.266Z,2.70
2023-04-24T07:29:31.787Z,2.77
2023-04-24T07:32:02.046Z,3.70
2023-04-24T07:34:31.779Z,3.90
2023-04-24T07:37:01.774Z,3.70
2023-04-24T07:39:30.365Z,4.17
2023-04-24T07:41:59.739Z,3.10
2023-04-24T07:44:28.349Z,3.00
2023-04-24T07:46:58.185Z,2.50
2023-04-24T07:49:26.751Z,3.07
2023-04-24T07:51:55.217Z,3.00
2023-04-24T07:54:24.891Z,3.00
2023-04-24T07:56:53.297Z,3.47
2023-04-24T07:59:21.684Z,2.97
2023-04-24T08:01:50.057Z,3.40
2023-04-24T08:04:19.066Z,3.40
2023-04-24T08:06:47.584Z,2.13
2023-04-24T08:09:18.432Z,2.20
2023-04-24T08:11:48.205Z,5.53
2023-04-24T08:14:16.646Z,7.17
2023-04-24T08:16:45.137Z,11.77
2023-04-24T08:19:13.508Z,12.30
2023-04-24T08:21:41.993Z,10.70
2023-04-24T08:24:10.420Z,12.30
2023-04-24T08:26:38.920Z,8.17
2023-04-24T08:29:08.951Z,9.57
2023-04-24T08:31:37.569Z,9.77
2023-04-24T08:34:06.167Z,10.27
2023-04-24T08:36:45.878Z,10.97
2023-04-24T08:39:15.510Z,10.17
2023-04-24T08:41:46.474Z,9.67
2023-04-24T08:44:17.366Z,9.33
2023-04-24T08:46:50.518Z,10.17
2023-04-24T08:49:21.202Z,8.57
2023-04-24T08:51:50.787Z,8.33
2023-04-24T08:54:20.393Z,8.43
2023-04-24T08:56:50.774Z,8.23
2023-04-24T08:59:20.871Z,8.77
2023-04-24T09:01:52.844Z,7.63
2023-04-24T09:04:23.277Z,8.47
2023-04-24T09:06:52.149Z,8.77
2023-04-24T09:09:21.055Z,7.83
2023-04-24T09:11:51.152Z,8.40
2023-04-24T09:14:21.993Z,8.30
2023-04-24T09:16:51.490Z,9.57
2023-04-24T09:19:19.907Z,8.80
2023-04-24T09:21:48.895Z,9.00
2023-04-24T09:24:19.466Z,9.33
2023-04-24T09:26:47.945Z,9.10
2023-04-24T09:29:17.689Z,9.97
2023-04-24T09:31:48.239Z,11.07
2023-04-24T09:34:16.865Z,9.77
2023-04-24T09:36:48.557Z,8.67
2023-04-24T09:39:18.454Z,9.93
2023-04-24T09:41:50.613Z,7.90
2023-04-24T09:44:22.031Z,8.10
2023-04-24T09:46:54.376Z,6.43
2023-04-24T09:49:25.073Z,7.50
2023-04-24T09:51:54.394Z,6.17
2023-04-24T09:54:23.632Z,6.57
2023-04-24T09:56:53.156Z,5.80
2023-04-24T09:59:22.316Z,6.80
2023-04-24T10:01:53.310Z,8.27
2023-04-24T10:04:23.251Z,6.93
2023-04-24T10:06:53.047Z,6.57
2023-04-24T10:09:23.273Z,6.67
2023-04-24T10:11:54.530Z,8.13
2023-04-24T10:14:24.689Z,8.70
2023-04-24T10:16:57.650Z,8.47
2023-04-24T10:19:28.506Z,8.77
2023-04-24T10:21:58.427Z,7.53
2023-04-24T10:24:27.013Z,7.80
2023-04-24T10:26:55.817Z,7.13
2023-04-24T10:29:24.281Z,7.07
2023-04-24T10:31:54.054Z,7.50
2023-04-24T10:34:24.230Z,6.60
2023-04-24T10:36:57.859Z,6.07
2023-04-24T10:39:27.291Z,4.57
2023-04-24T10:41:58.644Z,4.60
2023-04-24T10:44:27.830Z,4.33
2023-04-24T10:46:58.276Z,5.33
2023-04-24T10:49:34.063Z,5.23
2023-04-24T10:52:04.267Z,3.77
2023-04-24T10:54:37.405Z,4.07
2023-04-24T10:57:32.154Z,4.60
2023-04-24T11:00:16.650Z,4.00
2023-04-24T11:02:51.891Z,3.63
2023-04-24T11:05:21.784Z,4.40
2023-04-24T11:08:17.214Z,2.90
2023-04-24T11:10:49.854Z,3.50
2023-04-24T11:13:19.367Z,4.23
2023-04-24T11:16:25.341Z,3.30
2023-04-24T11:19:03.011Z,3.00
2023-04-24T11:21:34.485Z,2.90
2023-04-24T11:24:30.692Z,2.53
2023-04-24T11:27:00.907Z,3.27
2023-04-24T11:29:46.373Z,2.57
2023-04-24T11:32:19.967Z,2.43
2023-04-24T11:34:51.416Z,2.67
2023-04-24T11:37:20.098Z,2.70
2023-04-24T11:39:48.629Z,3.40
2023-04-24T11:42:17.684Z,3.17
2023-04-24T11:44:48.673Z,3.00
2023-04-24T11:47:17.192Z,3.03
2023-04-24T11:49:45.800Z,2.80
2023-04-24T11:52:18.009Z,2.40
2023-04-24T11:54:51.412Z,2.73
2023-04-24T11:57:23.304Z,2.67
2023-04-24T11:59:52.253Z,2.03
2023-04-24T12:02:28.917Z,2.87
2023-04-24T12:04:58.231Z,2.30
2023-04-24T12:07:28.724Z,3.07
2023-04-24T12:10:00.836Z,2.00
2023-04-24T12:12:30.736Z,2.83
2023-04-24T12:15:00.421Z,2.77
2023-04-24T12:17:31.410Z,2.10
2023-04-24T12:20:02.139Z,2.00
2023-04-24T12:22:46.611Z,1.57
2023-04-24T12:25:16.102Z,1.23
2023-04-24T12:27:45.515Z,1.73
2023-04-24T12:30:16.229Z,1.67
2023-04-24T12:32:46.021Z,1.37
2023-04-24T12:35:15.140Z,1.67
2023-04-24T12:37:47.462Z,1.47
2023-04-24T12:40:17.569Z,1.63
2023-04-24T12:42:47.025Z,1.33
2023-04-24T12:45:16.207Z,1.97
2023-04-24T12:47:45.914Z,2.43
2023-04-24T12:50:15.864Z,1.67
2023-04-24T12:52:46.764Z,1.57
2023-04-24T12:55:15.152Z,1.70
2023-04-24T12:57:43.579Z,1.50
2023-04-24T13:00:12.617Z,1.03
2023-04-24T13:02:41.414Z,1.07
2023-04-24T13:05:12.748Z,0.87
2023-04-24T13:07:41.446Z,1.67
2023-04-24T13:10:12.249Z,1.10
2023-04-24T13:12:41.328Z,1.47
2023-04-24T13:15:10.550Z,1.30
2023-04-24T13:17:39.038Z,1.10
2023-04-24T13:20:08.639Z,1.23
2023-04-24T13:22:38.746Z,1.33
2023-04-24T13:25:08.375Z,0.90
2023-04-24T13:27:40.483Z,1.00
2023-04-24T13:30:10.149Z,1.23
2023-04-24T13:32:38.771Z,0.80
2023-04-24T13:35:07.877Z,0.67
2023-04-24T13:37:36.332Z,1.00
2023-04-24T13:40:07.200Z,1.10
2023-04-24T13:42:35.911Z,1.13
2023-04-24T13:45:23.341Z,1.07
2023-04-24T13:47:55.082Z,1.00
2023-04-24T13:50:23.910Z,1.07
2023-04-24T13:52:52.705Z,1.00
2023-04-24T13:55:21.139Z,1.37
2023-04-24T13:57:49.706Z,0.70
2023-04-24T14:00:20.854Z,1.23
2023-04-24T14:02:49.618Z,1.10
2023-04-24T14:05:19.353Z,1.10
2023-04-24T14:07:47.774Z,1.37
2023-04-24T14:10:16.540Z,1.30
2023-04-24T14:12:45.833Z,1.60
2023-04-24T14:15:14.534Z,1.53
2023-04-24T14:17:44.452Z,1.30
2023-04-24T14:20:14.886Z,1.57
2023-04-24T14:22:43.357Z,1.53
2023-04-24T14:25:11.925Z,2.00
2023-04-24T14:27:41.170Z,1.70
2023-04-24T14:30:10.755Z,1.43
2023-04-24T14:32:40.965Z,1.67
2023-04-24T14:35:11.317Z,1.63
2023-04-24T14:37:42.244Z,1.77
2023-04-24T14:40:29.765Z,1.50
2023-04-24T14:43:00.160Z,1.30
2023-04-24T14:45:29.034Z,1.70
2023-04-24T14:47:58.830Z,2.33
2023-04-24T14:50:29.312Z,1.40
2023-04-24T14:52:58.695Z,1.80
2023-04-24T14:55:28.062Z,2.00
2023-04-24T14:57:56.816Z,2.20
2023-04-24T15:00:25.496Z,2.00
2023-04-24T15:02:54.064Z,1.77
2023-04-24T15:05:23.041Z,1.93
2023-04-24T15:07:53.232Z,2.63
2023-04-24T15:10:24.027Z,2.20
2023-04-24T15:12:52.916Z,1.67
2023-04-24T15:15:21.525Z,1.83
2023-04-24T15:17:50.025Z,2.20
2023-04-24T15:20:19.087Z,1.60
2023-04-24T15:22:47.591Z,1.60
2023-04-24T15:25:17.676Z,2.07
2023-04-24T15:27:47.389Z,2.23
2023-04-24T15:30:16.532Z,1.93
2023-04-24T15:32:44.975Z,2.10
2023-04-24T15:35:13.339Z,1.70
2023-04-24T15:37:41.807Z,1.80
2023-04-24T15:40:12.657Z,1.30
2023-04-24T15:42:43.801Z,1.90
2023-04-24T15:45:13.181Z,1.70
2023-04-24T15:47:42.099Z,1.90
2023-04-24T15:50:14.497Z,1.60
2023-04-24T15:52:43.283Z,1.70
2023-04-24T15:55:12.270Z,1.77
2023-04-24T15:57:42.409Z,1.70
2023-04-24T16:00:11.841Z,2.10
2023-04-24T16:02:40.506Z,1.30
2023-04-24T16:05:09.708Z,2.13
2023-04-24T16:07:39.963Z,1.67
2023-04-24T16:10:09.209Z,1.63
2023-04-24T16:12:37.761Z,1.00
2023-04-24T16:15:09.164Z,1.60
2023-04-24T16:17:37.892Z,1.60
2023-04-24T16:20:07.760Z,1.27
2023-04-24T16:22:36.231Z,1.47
2023-04-24T16:25:04.830Z,1.40
2023-04-24T16:27:33.379Z,1.90
2023-04-24T16:30:01.799Z,2.80
2023-04-24T16:32:32.042Z,2.13
2023-04-24T16:35:00.403Z,2.03
2023-04-24T16:37:31.253Z,2.67
2023-04-24T16:39:59.656Z,2.30
2023-04-24T16:42:28.294Z,2.13
2023-04-24T16:44:56.703Z,2.30
2023-04-24T16:47:25.236Z,1.73
2023-04-24T16:49:55.321Z,1.97
2023-04-24T16:52:23.785Z,2.00
2023-04-24T16:54:52.442Z,2.27
2023-04-24T16:57:20.989Z,2.53
2023-04-24T16:59:49.310Z,2.27
2023-04-24T17:02:17.694Z,2.30
2023-04-24T17:04:46.421Z,2.80
2023-04-24T17:07:18.812Z,3.40
2023-04-24T17:09:47.272Z,2.93
2023-04-24T17:12:15.703Z,2.77
2023-04-24T17:14:44.020Z,2.73
2023-04-24T17:17:12.751Z,3.07
2023-04-24T17:19:41.070Z,2.87
2023-04-24T17:22:09.412Z,3.00
2023-04-24T17:24:39.497Z,3.03
2023-04-24T17:27:14.505Z,3.80
2023-04-24T17:29:43.807Z,3.40
2023-04-24T17:32:12.338Z,2.70
2023-04-24T17:34:40.936Z,3.20
2023-04-24T17:37:09.647Z,3.17
2023-04-24T17:39:39.988Z,2.93
2023-04-24T17:42:08.406Z,2.60
2023-04-24T17:44:37.148Z,2.50
2023-04-24T17:47:05.776Z,2.90
2023-04-24T17:49:34.282Z,3.10
2023-04-24T17:52:02.675Z,2.43
2023-04-24T17:54:31.089Z,3.10
2023-04-24T17:57:01.510Z,2.67
2023-04-24T17:59:29.970Z,2.90
2023-04-24T18:01:58.536Z,2.53
2023-04-24T18:04:27.281Z,3.07
2023-04-24T18:06:55.842Z,2.57
2023-04-24T18:09:24.288Z,2.50
2023-04-24T18:11:52.652Z,2.40
2023-04-24T18:14:23.280Z,2.97
2023-04-24T18:16:51.600Z,3.60
2023-04-24T18:19:20.021Z,3.37
2023-04-24T18:21:48.393Z,3.03
2023-04-24T18:24:16.946Z,3.03
2023-04-24T18:26:45.386Z,3.33
2023-04-24T18:29:13.737Z,3.60
2023-04-24T18:31:43.601Z,3.43
2023-04-24T18:34:12.230Z,3.20
2023-04-24T18:36:40.683Z,3.00
2023-04-24T18:39:09.609Z,3.00
2023-04-24T18:41:38.149Z,3.83
2023-04-24T18:44:06.684Z,3.47
2023-04-24T18:46:38.854Z,3.90
2023-04-24T18:49:08.748Z,3.90
2023-04-24T18:51:50.247Z,3.47
2023-04-24T18:54:23.306Z,3.77
2023-04-24T18:56:52.186Z,4.27
2023-04-24T18:59:21.330Z,4.63
2023-04-24T19:01:49.880Z,5.87
2023-04-24T19:04:20.932Z,5.27
2023-04-24T19:06:49.866Z,4.77
2023-04-24T19:09:18.522Z,5.17
2023-04-24T19:11:47.783Z,3.93
2023-04-24T19:14:19.464Z,4.50
2023-04-24T19:16:48.390Z,3.33
2023-04-24T19:19:16.995Z,4.20
2023-04-24T19:21:47.830Z,4.27
2023-04-24T19:24:16.664Z,4.73
2023-04-24T19:26:45.462Z,4.63
2023-04-24T19:29:14.013Z,4.63
2023-04-24T19:31:43.273Z,4.90
2023-04-24T19:34:12.036Z,4.00
2023-04-24T19:36:40.647Z,4.00
2023-04-24T19:39:10.591Z,4.30
2023-04-24T19:41:39.429Z,4.30
2023-04-24T19:44:07.927Z,4.47
2023-04-24T19:46:36.490Z,4.50
2023-04-24T19:49:05.082Z,4.30
2023-04-24T19:51:33.843Z,4.33
2023-04-24T19:54:03.267Z,4.70
2023-04-24T19:56:33.182Z,5.07
2023-04-24T19:59:01.670Z,5.00
2023-04-24T20:01:30.302Z,4.60
2023-04-24T20:03:58.932Z,4.60
2023-04-24T20:06:27.426Z,4.90
2023-04-24T20:08:56.122Z,5.37
2023-04-24T20:11:24.701Z,5.23
2023-04-24T20:13:54.729Z,4.93
2023-04-24T20:16:23.189Z,5.30
2023-04-24T20:18:51.928Z,4.90
2023-04-24T20:21:20.527Z,5.07
2023-04-24T20:23:50.611Z,5.10
2023-04-24T20:26:22.410Z,5.00
2023-04-24T20:28:51.267Z,6.00
2023-04-24T20:31:21.588Z,5.13
2023-04-24T20:33:50.195Z,5.17
2023-04-24T20:36:18.869Z,5.77
2023-04-24T20:38:48.463Z,5.70
2023-04-24T20:41:17.322Z,5.23
2023-04-24T20:43:46.347Z,6.13
2023-04-24T20:46:15.164Z,6.67
2023-04-24T20:48:45.187Z,6.07
2023-04-24T20:51:17.430Z,5.63
2023-04-24T20:53:46.232Z,6.50
2023-04-24T20:56:14.683Z,6.23
2023-04-24T20:58:46.094Z,6.07
2023-04-24T21:01:14.827Z,5.93
2023-04-24T21:03:45.101Z,5.60
2023-04-24T21:06:13.821Z,5.77
2023-04-24T21:08:42.264Z,5.90
2023-04-24T21:11:10.662Z,6.60
2023-04-24T21:13:39.090Z,7.27
2023-04-24T21:16:07.893Z,8.77
2023-04-24T21:18:41.067Z,7.53
2023-04-24T21:21:12.067Z,6.23
2023-04-24T21:23:40.697Z,7.03
2023-04-24T21:26:09.345Z,6.23
2023-04-24T21:28:38.104Z,6.80
2023-04-24T21:31:06.542Z,6.63
2023-04-24T21:33:35.014Z,7.40
2023-04-24T21:36:03.670Z,6.57
2023-04-24T21:38:33.580Z,6.97
2023-04-24T21:41:01.947Z,6.97
2023-04-24T21:43:49.810Z,6.63
2023-04-24T21:46:18.898Z,7.33
2023-04-24T21:48:47.391Z,6.17
2023-04-24T21:51:16.738Z,6.70
2023-04-24T21:53:46.804Z,8.60
2023-04-24T21:56:15.584Z,6.83
2023-04-24T21:58:44.117Z,7.53
2023-04-24T22:01:15.724Z,6.63
2023-04-24T22:03:44.408Z,7.47
2023-04-24T22:06:12.744Z,7.67
2023-04-24T22:08:41.665Z,7.00
2023-04-24T22:11:25.800Z,6.73
2023-04-24T22:13:55.092Z,7.37
2023-04-24T22:16:24.889Z,6.60
2023-04-24T22:18:55.364Z,7.53
2023-04-24T22:21:24.158Z,6.87
2023-04-24T22:23:52.900Z,7.93
2023-04-24T22:26:22.786Z,7.63
2023-04-24T22:28:51.298Z,7.03
2023-04-24T22:31:19.789Z,7.60
2023-04-24T22:33:48.427Z,6.70
2023-04-24T22:36:17.086Z,6.80
2023-04-24T22:38:46.117Z,7.47
2023-04-24T22:41:15.018Z,6.73
2023-04-24T22:43:45.377Z,6.90
2023-04-24T22:46:13.832Z,6.63
2023-04-24T22:48:42.296Z,7.77
2023-04-24T22:51:10.766Z,8.50
2023-04-24T22:53:41.388Z,7.60
2023-04-24T22:56:09.766Z,8.77
2023-04-24T22:58:38.057Z,9.03
2023-04-24T23:01:07.887Z,8.10
2023-04-24T23:03:36.870Z,7.43
2023-04-24T23:06:05.962Z,6.80
2023-04-24T23:08:34.433Z,8.17
2023-04-24T23:11:02.814Z,7.97
2023-04-24T23:13:31.417Z,7.13
2023-04-24T23:15:59.796Z,8.83
2023-04-24T23:18:29.525Z,8.50
2023-04-24T23:20:58.566Z,7.97
2023-04-24T23:23:27.002Z,8.20
2023-04-24T23:25:55.688Z,8.10
2023-04-24T23:28:24.078Z,7.40
2023-04-24T23:30:52.385Z,6.70
2023-04-24T23:33:20.839Z,7.93
2023-04-24T23:35:51.277Z,7.43
2023-04-24T23:38:19.587Z,7.57
2023-04-24T23:40:47.996Z,7.33
2023-04-24T23:43:16.413Z,7.93
2023-04-24T23:45:44.888Z,7.80
2023-04-24T23:48:13.301Z,7.80
2023-04-24T23:50:41.843Z,7.37
2023-04-24T23:53:11.997Z,7.43
2023-04-24T23:55:40.385Z,8.67
2023-04-24T23:58:09.047Z,7.40
